Gorgan, Gorgan Airport (OING)

NameGorgan Airport
CityGorgan
CountryIran (Islamic Republic of)
ICAOOING
IATAGBT
Altitude-7 m
CoordinatesGoogle Map
Live Air TrafficLiveATC.net
METAROING 200100Z 00000KT 9999 SCT030 OVC080 11/09 Q1023
2019-11-20 01:00:00 Wind: North (0°) 0 m/s - Visibility: > 10000 m - Temperature: 11 °C - Dew point: 9 °C - Humidity: 87.6% - Pressure: 1023 hPa
Statistics

The table below shows the detailed information of all flights to/from Gorgan, Gorgan Airport (OING).